Time;durP1;ratioP1;P1;durP2;ratioP2;P2;SDS_P1;SDS_P2;PMS_P1;PMS_P2;Temp;Humidity;BMP_temperature;BMP_pressure;BME280_temperature;BME280_humidity;BME280_pressure;Samples;Min_cycle;Max_cycle;Signal;HPM_P1;HPM_P2
2022/07/10 00:02:46;;;;;;;9.80;5.78;;;;;;;19.16;67.10;99701.56;5199363;28;20181;-87
2022/07/10 00:05:44;;;;;;;8.63;5.47;;;;;;;19.42;66.47;99719.16;5191265;28;20057;-87
2022/07/10 00:08:45;;;;;;;7.15;5.57;;;;;;;18.91;66.26;99671.41;5190157;28;20311;-87
2022/07/10 00:11:39;;;;;;;6.35;5.10;;;;;;;19.35;65.72;99715.53;5195267;28;20076;-87
2022/07/10 00:14:29;;;;;;;7.72;5.82;;;;;;;19.40;65.78;99748.94;5193451;28;20060;-87
2022/07/10 00:17:20;;;;;;;6.93;4.90;;;;;;;19.19;66.56;99727.25;5209196;28;20523;-87
2022/07/10 00:20:11;;;;;;;5.90;5.30;;;;;;;19.30;66.26;99753.69;5206517;23;20496;-70
2022/07/10 00:23:01;;;;;;;9.15;5.45;;;;;;;19.45;65.87;99761.81;5184368;28;20085;-70
2022/07/10 00:25:51;;;;;;;6.97;5.57;;;;;;;19.42;65.93;99754.09;5183449;28;20072;-70
2022/07/10 00:28:41;;;;;;;8.60;5.63;;;;;;;19.25;66.73;99743.50;5183992;28;20523;-70
2022/07/10 00:31:31;;;;;;;5.82;5.22;;;;;;;19.22;65.95;99751.09;5184648;28;20056;-70
2022/07/10 00:34:21;;;;;;;7.50;5.22;;;;;;;19.02;66.03;99738.13;5184211;28;20152;-70
2022/07/10 00:37:12;;;;;;;6.68;5.22;;;;;;;19.01;66.18;99741.03;5184719;28;20050;-71
2022/07/10 00:40:04;;;;;;;7.97;5.70;;;;;;;19.05;65.09;99746.88;5184208;28;20573;-70
2022/07/10 00:42:54;;;;;;;7.03;5.55;;;;;;;19.00;64.51;99750.09;5184342;28;20053;-70
2022/07/10 00:45:44;;;;;;;8.85;5.55;;;;;;;18.91;64.62;99753.88;5172515;28;20559;-70
2022/07/10 00:48:35;;;;;;;10.30;5.25;;;;;;;18.78;65.41;99752.59;5183748;28;20136;-70
2022/07/10 00:51:28;;;;;;;7.85;5.25;;;;;;;18.75;66.71;99742.22;5183162;28;20196;-70
2022/07/10 00:54:17;;;;;;;5.75;4.90;;;;;;;18.72;66.44;99744.41;5184413;28;20054;-70
2022/07/10 00:57:08;;;;;;;6.80;5.20;;;;;;;18.70;66.25;99749.91;5183400;28;20050;-70
2022/07/10 00:59:59;;;;;;;6.03;5.30;;;;;;;18.64;67.28;99747.09;5184565;28;20532;-70
2022/07/10 01:02:49;;;;;;;7.95;5.00;;;;;;;18.63;66.61;99743.59;5181892;28;20127;-70
2022/07/10 01:05:39;;;;;;;7.22;5.40;;;;;;;18.61;65.69;99737.59;5171292;28;20140;-71
2022/07/10 01:08:30;;;;;;;6.60;5.35;;;;;;;18.60;66.57;99741.25;5178205;28;20458;-70
2022/07/10 01:11:21;;;;;;;7.88;5.93;;;;;;;18.63;66.40;99738.22;5183034;28;20052;-70
2022/07/10 01:14:12;;;;;;;8.90;5.90;;;;;;;18.60;66.67;99751.16;5183313;28;20056;-70
2022/07/10 01:17:07;;;;;;;7.53;5.68;;;;;;;18.57;67.12;99744.28;5181833;28;20080;-70
2022/07/10 01:19:58;;;;;;;7.32;6.07;;;;;;;18.49;66.98;99730.94;5172904;28;20081;-71
2022/07/10 01:22:48;;;;;;;10.38;6.35;;;;;;;18.51;67.11;99737.81;5183708;28;20187;-71
2022/07/10 01:25:38;;;;;;;7.60;5.90;;;;;;;18.41;67.28;99737.19;5169894;28;20152;-71
2022/07/10 01:28:29;;;;;;;9.90;6.07;;;;;;;18.35;67.84;99737.06;5183784;28;20440;-71
2022/07/10 01:31:24;;;;;;;7.50;5.68;;;;;;;18.38;67.41;99736.72;5182877;28;20096;-70
2022/07/10 01:34:14;;;;;;;;;;;;;;;18.31;68.17;99733.88;5184971;28;20057;-70
2022/07/10 01:37:04;;;;;;;7.72;5.60;;;;;;;18.35;67.44;99731.69;5182432;28;19936;-71
2022/07/10 01:39:55;;;;;;;8.15;6.15;;;;;;;18.24;68.35;99731.03;5183637;28;20115;-70
2022/07/10 01:42:45;;;;;;;8.43;5.85;;;;;;;18.14;68.67;99733.09;5183654;28;20500;-70
2022/07/10 01:45:35;;;;;;;8.90;6.30;;;;;;;18.30;68.10;99738.41;5183862;28;20061;-70
2022/07/10 01:48:26;;;;;;;7.05;6.10;;;;;;;18.22;68.29;99734.94;5182721;28;20144;-70
2022/07/10 01:51:16;;;;;;;9.88;6.32;;;;;;;18.23;68.26;99740.13;5182767;28;20054;-70
2022/07/10 01:54:07;;;;;;;12.20;7.15;;;;;;;18.09;69.44;99740.84;5182998;28;20053;-70
2022/07/10 01:56:57;;;;;;;13.15;7.72;;;;;;;18.14;68.82;99746.53;5181270;28;20057;-71
2022/07/10 01:59:47;;;;;;;10.65;7.18;;;;;;;18.45;67.84;99748.41;5183687;28;20057;-71
2022/07/10 02:02:38;;;;;;;18.10;7.28;;;;;;;18.43;67.52;99747.75;5182877;28;20049;-71
2022/07/10 02:05:29;;;;;;;8.82;6.53;;;;;;;18.36;68.65;99744.09;5182814;28;20077;-71
2022/07/10 02:08:19;;;;;;;9.98;7.20;;;;;;;18.45;66.82;99743.03;5183319;28;20049;-70
2022/07/10 02:11:10;;;;;;;8.32;6.60;;;;;;;18.41;67.22;99742.56;5180015;28;20673;-70
2022/07/10 02:14:00;;;;;;;8.25;6.85;;;;;;;18.58;66.28;99735.25;5182917;28;20076;-70
2022/07/10 02:16:50;;;;;;;11.52;6.88;;;;;;;18.38;67.82;99745.59;5182781;28;20045;-70
2022/07/10 02:19:40;;;;;;;8.52;6.82;;;;;;;18.53;66.29;99751.88;5168058;28;20645;-71
2022/07/10 02:22:30;;;;;;;9.27;6.85;;;;;;;18.36;66.50;99744.09;5167558;28;20077;-70
2022/07/10 02:25:20;;;;;;;8.60;6.47;;;;;;;18.18;68.05;99755.06;5181344;28;20073;-70
2022/07/10 02:28:10;;;;;;;10.65;6.80;;;;;;;18.35;66.50;99755.84;5171740;28;20057;-70
2022/07/10 02:31:00;;;;;;;8.98;6.22;;;;;;;18.33;66.70;99756.00;5182721;28;20061;-70
2022/07/10 02:33:51;;;;;;;9.02;6.97;;;;;;;18.16;67.52;99751.72;5169254;28;20443;-71
2022/07/10 02:36:41;;;;;;;9.65;7.05;;;;;;;18.34;67.15;99764.91;5175891;28;20515;-71
2022/07/10 02:39:31;;;;;;;8.20;6.75;;;;;;;18.45;66.41;99761.84;5179278;28;20156;-70
2022/07/10 02:42:21;;;;;;;8.85;6.78;;;;;;;18.35;66.71;99758.53;5173626;28;20057;-70
2022/07/10 02:45:11;;;;;;;11.25;7.30;;;;;;;18.38;65.92;99758.19;5182601;28;20053;-70
2022/07/10 02:48:02;;;;;;;14.48;7.68;;;;;;;18.17;66.64;99753.41;5182885;28;20056;-70
2022/07/10 02:50:52;;;;;;;9.90;7.57;;;;;;;18.15;66.21;99760.81;5182042;28;20076;-70
2022/07/10 02:53:43;;;;;;;10.82;7.22;;;;;;;17.98;65.70;99755.50;5182558;28;20108;-70
2022/07/10 02:56:33;;;;;;;9.50;7.72;;;;;;;18.02;66.01;99758.66;5178563;28;20058;-70
2022/07/10 02:59:23;;;;;;;12.02;8.70;;;;;;;17.91;66.47;99767.91;5182242;28;20056;-70
2022/07/10 03:02:13;;;;;;;12.25;7.80;;;;;;;17.86;66.55;99767.59;5180028;28;20488;-70
2022/07/10 03:05:04;;;;;;;10.77;8.15;;;;;;;17.78;66.53;99771.16;5181530;28;20052;-71
2022/07/10 03:07:54;;;;;;;10.68;8.25;;;;;;;17.76;66.73;99762.44;5167955;28;20597;-70
2022/07/10 03:10:44;;;;;;;8.05;7.22;;;;;;;17.71;67.08;99766.59;5182045;28;20112;-70
2022/07/10 03:13:34;;;;;;;13.30;7.80;;;;;;;17.67;67.47;99771.47;5181619;28;20046;-70
2022/07/10 03:16:25;;;;;;;10.77;7.32;;;;;;;17.74;66.84;99767.09;5172247;28;20128;-70
2022/07/10 03:19:15;;;;;;;13.07;7.50;;;;;;;17.89;67.23;99766.44;5181761;28;20073;-71
2022/07/10 03:22:05;;;;;;;10.77;7.13;;;;;;;17.83;66.56;99766.09;5181479;28;20514;-70
2022/07/10 03:24:55;;;;;;;9.98;7.18;;;;;;;17.68;66.45;99758.88;5181598;28;20057;-71
2022/07/10 03:27:45;;;;;;;11.30;6.80;;;;;;;17.42;67.79;99764.44;5180870;28;20104;-71
2022/07/10 03:30:36;;;;;;;11.52;6.75;;;;;;;17.69;66.66;99772.13;5181218;28;20558;-71
2022/07/10 03:33:26;;;;;;;8.63;6.65;;;;;;;17.86;65.45;99778.34;5167324;28;20423;-71
2022/07/10 03:36:16;;;;;;;7.65;6.57;;;;;;;17.76;66.88;99783.88;5180952;28;20061;-71
2022/07/10 03:39:07;;;;;;;10.48;7.40;;;;;;;17.78;66.89;99781.88;5181491;28;20512;-71
2022/07/10 03:41:58;;;;;;;10.02;7.03;;;;;;;17.81;67.05;99781.53;5181516;28;20129;-71
2022/07/10 03:44:48;;;;;;;9.82;6.60;;;;;;;17.99;66.58;99780.47;5173315;28;20308;-71
2022/07/10 03:47:39;;;;;;;11.50;7.35;;;;;;;17.98;66.01;99776.09;5181839;28;20263;-71
2022/07/10 03:50:29;;;;;;;8.98;6.78;;;;;;;17.98;66.57;99768.91;5183725;28;20052;-70
2022/07/10 03:53:19;;;;;;;10.48;6.95;;;;;;;17.99;66.31;99775.13;5184232;28;20053;-71
2022/07/10 03:57:53;;;;;;;11.57;7.03;;;;;;;18.11;65.76;99781.75;5184948;28;20061;-71
2022/07/10 03:59:19;;;;;;;8.70;6.88;;;;;;;18.07;67.32;99789.31;5184857;28;20056;-71
2022/07/10 04:02:09;;;;;;;13.02;7.85;;;;;;;17.92;66.89;99787.53;5183992;28;20104;-71
2022/07/10 04:04:59;;;;;;;12.70;7.90;;;;;;;18.14;65.96;99785.94;5185488;28;20050;-71
2022/07/10 04:07:50;;;;;;;10.30;7.50;;;;;;;18.23;65.69;99784.91;5184643;28;20404;-71
2022/07/10 04:10:40;;;;;;;12.05;7.30;;;;;;;18.05;66.81;99782.47;5185372;28;20176;-71
2022/07/10 04:13:30;;;;;;;14.05;7.68;;;;;;;18.15;66.18;99784.97;5183703;28;20523;-71
2022/07/10 04:16:20;;;;;;;9.07;7.50;;;;;;;18.27;66.05;99783.56;5178832;28;20049;-71
2022/07/10 04:19:11;;;;;;;8.98;7.25;;;;;;;18.17;66.03;99777.56;5185184;28;20570;-71
2022/07/10 04:22:01;;;;;;;12.07;6.95;;;;;;;18.02;66.77;99778.28;5183618;28;20200;-71
2022/07/10 04:24:51;;;;;;;9.38;7.38;;;;;;;18.33;65.69;99790.91;5184575;28;20056;-71
2022/07/10 04:27:42;;;;;;;7.93;6.75;;;;;;;18.40;65.76;99791.88;5167078;28;20451;-71
2022/07/10 04:30:32;;;;;;;11.32;7.03;;;;;;;18.11;65.70;99759.47;5177646;28;20141;-71
2022/07/10 04:33:22;;;;;;;7.93;6.22;;;;;;;18.39;65.32;99789.38;5184238;28;20450;-71
2022/07/10 04:36:12;;;;;;;12.25;6.82;;;;;;;18.65;64.54;99773.81;5184176;28;20191;-71
2022/07/10 04:39:02;;;;;;;11.50;5.88;;;;;;;18.57;64.76;99799.88;5184735;28;20463;-71
2022/07/10 04:41:52;;;;;;;10.45;6.22;;;;;;;18.66;64.53;99793.44;5170500;28;20049;-71
2022/07/10 04:44:43;;;;;;;9.82;6.00;;;;;;;18.58;64.24;99796.19;5184936;28;20089;-71
2022/07/10 04:47:33;;;;;;;6.57;5.65;;;;;;;18.64;64.81;99790.94;5183452;28;20180;-71
2022/07/10 04:50:24;;;;;;;8.73;5.47;;;;;;;18.43;64.73;99791.53;5184473;28;20170;-71
2022/07/10 04:53:14;;;;;;;9.93;5.65;;;;;;;18.34;65.45;99791.75;5183891;28;20057;-71
2022/07/10 04:56:04;;;;;;;7.32;5.60;;;;;;;18.74;63.55;99791.59;5171331;28;20506;-71
2022/07/10 04:58:55;;;;;;;7.53;5.28;;;;;;;18.52;63.52;99789.66;5178191;28;20058;-71
2022/07/10 05:01:45;;;;;;;7.20;5.32;;;;;;;18.25;64.43;99777.53;5183922;28;20192;-71
2022/07/10 05:04:35;;;;;;;6.40;5.25;;;;;;;18.40;63.79;99785.69;5186693;28;20397;-71
2022/07/10 05:07:25;;;;;;;8.93;5.20;;;;;;;18.51;63.52;99793.38;5184751;28;20514;-71
2022/07/10 05:10:15;;;;;;;8.18;5.00;;;;;;;18.60;64.27;99797.66;5186243;28;20045;-71
2022/07/10 05:13:06;;;;;;;5.43;4.15;;;;;;;18.55;63.40;99770.50;5183829;28;20050;-71
2022/07/10 05:15:56;;;;;;;7.13;4.22;;;;;;;18.93;61.90;99795.66;5182250;28;20068;-71
2022/07/10 05:18:46;;;;;;;6.35;4.32;;;;;;;18.67;62.55;99803.16;5175090;28;20150;-71
2022/07/10 05:21:36;;;;;;;8.88;3.70;;;;;;;18.68;62.93;99800.31;5182651;28;20071;-71
2022/07/10 05:24:27;;;;;;;6.53;3.90;;;;;;;18.61;62.25;99799.34;5184078;28;20054;-71
2022/07/10 05:27:20;;;;;;;6.10;3.70;;;;;;;18.70;62.21;99809.03;5184166;28;20147;-71
2022/07/10 05:30:10;;;;;;;8.98;3.50;;;;;;;18.89;62.14;99812.31;5180183;28;20109;-71
2022/07/10 05:33:01;;;;;;;6.30;3.10;;;;;;;18.98;60.76;99814.78;5183599;28;20064;-71
2022/07/10 05:35:51;;;;;;;5.13;3.30;;;;;;;18.60;61.74;99813.78;5183686;28;20050;-71
2022/07/10 05:38:41;;;;;;;5.50;3.03;;;;;;;18.98;61.71;99816.63;5182681;28;20112;-71
2022/07/10 05:41:32;;;;;;;5.72;3.28;;;;;;;18.98;60.49;99822.84;5170456;28;20137;-71
2022/07/10 05:44:23;;;;;;;6.47;2.85;;;;;;;19.02;60.65;99820.63;5176996;28;20557;-71
2022/07/10 05:47:14;;;;;;;6.75;3.55;;;;;;;19.13;60.86;99820.19;5181892;28;20155;-71
2022/07/10 05:50:05;;;;;;;6.25;3.78;;;;;;;19.06;61.90;99830.00;5182981;28;20053;-71
2022/07/10 05:52:55;;;;;;;7.70;3.70;;;;;;;19.22;59.53;99821.00;5183049;28;20100;-71
2022/07/10 05:55:47;;;;;;;9.50;3.70;;;;;;;19.22;59.87;99829.88;5169197;28;20544;-72
2022/07/10 05:58:38;;;;;;;7.03;3.65;;;;;;;18.96;60.25;99834.78;5183337;28;20076;-71
2022/07/10 06:01:29;;;;;;;6.07;3.85;;;;;;;18.96;60.67;99834.78;5182244;28;20120;-71
2022/07/10 06:04:19;;;;;;;7.93;3.40;;;;;;;19.09;60.26;99835.03;5167601;28;20052;-71
2022/07/10 06:07:09;;;;;;;7.20;3.60;;;;;;;19.05;59.61;99843.63;5174308;28;20064;-71
2022/07/10 06:10:00;;;;;;;8.93;3.50;;;;;;;18.90;61.54;99840.84;5182978;28;20518;-71
2022/07/10 06:12:51;;;;;;;4.55;2.97;;;;;;;18.46;59.73;99838.69;5177659;28;20587;-71
2022/07/10 06:15:41;;;;;;;5.78;2.65;;;;;;;18.43;58.40;99845.25;5178318;28;20061;-71
2022/07/10 06:18:31;;;;;;;6.97;2.97;;;;;;;18.18;59.86;99830.22;5180297;28;20471;-71
2022/07/10 06:21:22;;;;;;;8.43;3.13;;;;;;;18.79;58.30;99842.09;5182899;28;20058;-71
2022/07/10 06:24:13;;;;;;;7.47;2.95;;;;;;;19.05;57.71;99839.09;5182920;28;20046;-71
2022/07/10 06:27:04;;;;;;;5.90;3.08;;;;;;;17.69;61.58;99849.09;5178456;28;20050;-71
2022/07/10 06:29:55;;;;;;;5.50;3.20;;;;;;;18.82;59.47;99851.66;5177520;28;20053;-71
2022/07/10 06:32:46;;;;;;;8.85;2.70;;;;;;;19.14;57.64;99853.28;5176211;28;20555;-71
2022/07/10 06:35:36;;;;;;;6.05;2.95;;;;;;;18.31;59.06;99836.75;5182918;28;20499;-71
2022/07/10 06:38:26;;;;;;;5.55;2.47;;;;;;;18.63;57.52;99851.03;5171404;28;20061;-71
2022/07/10 06:41:16;;;;;;;4.93;2.45;;;;;;;19.13;57.26;99862.38;5177828;28;20532;-69
2022/07/10 06:44:07;;;;;;;5.55;2.00;;;;;;;18.29;56.22;99854.84;5180153;28;20133;-69
2022/07/10 06:50:09;;;;;;;2.85;2.15;;;;;;;18.59;57.18;99855.09;5192631;28;20420;-71
2022/07/10 06:53:03;;;;;;;5.43;2.60;;;;;;;18.98;57.10;99859.63;5177982;28;20152;-70
2022/07/10 06:55:54;;;;;;;7.90;2.75;;;;;;;18.83;57.54;99850.63;5177609;28;20523;-69
2022/07/10 06:58:44;;;;;;;5.30;2.38;;;;;;;18.75;56.32;99859.59;5175629;28;20073;-69
2022/07/10 07:01:34;;;;;;;9.77;2.60;;;;;;;18.81;55.54;99860.72;5178989;28;20050;-69
2022/07/10 07:04:24;;;;;;;5.75;2.38;;;;;;;18.87;56.38;99857.31;5175863;28;20068;-70
2022/07/10 07:07:15;;;;;;;7.55;1.92;;;;;;;18.72;55.40;99855.38;5172338;28;20060;-71
2022/07/10 07:10:14;;;;;;;6.00;1.92;;;;;;;17.27;58.46;99856.25;5179417;28;20060;-70
2022/07/10 07:13:04;;;;;;;5.95;2.03;;;;;;;18.12;57.22;99865.81;5176996;28;20053;-68
2022/07/10 07:16:00;;;;;;;7.30;1.80;;;;;;;18.03;56.58;99865.81;5173927;28;20065;-69
2022/07/10 07:18:52;;;;;;;5.82;2.20;;;;;;;18.30;55.54;99867.25;5177255;28;20108;-69
2022/07/10 07:24:54;;;;;;;4.22;1.35;;;;;;;18.60;55.67;99872.88;5172422;28;20053;-69
2022/07/10 07:27:44;;;;;;;5.03;1.70;;;;;;;18.81;52.78;99866.09;5186866;28;20050;-69
2022/07/10 07:30:35;;;;;;;6.15;2.00;;;;;;;18.92;53.06;99881.84;5178139;28;20050;-68
2022/07/10 07:33:25;;;;;;;5.03;1.80;;;;;;;19.14;52.52;99872.97;5178075;28;20108;-70
2022/07/10 07:36:15;;;;;;;11.50;2.20;;;;;;;18.99;53.28;99867.50;5184193;28;20424;-69
2022/07/10 07:39:06;;;;;;;3.10;1.40;;;;;;;18.89;52.67;99872.25;5187257;28;20052;-69
2022/07/10 07:41:56;;;;;;;5.30;1.88;;;;;;;18.96;52.89;99875.09;5179993;28;20088;-71
2022/07/10 07:44:46;;;;;;;3.17;1.58;;;;;;;18.87;53.64;99847.41;5178884;28;20057;-69
2022/07/10 07:47:51;;;;;;;6.57;1.60;;;;;;;18.98;53.83;99881.97;5188487;28;20052;-69
2022/07/10 07:50:41;;;;;;;;;;;;;;;19.43;52.88;99884.84;5185711;28;20487;-69
2022/07/10 07:53:32;;;;;;;4.40;1.67;;;;;;;19.02;53.10;99860.94;5183419;28;20589;-68
2022/07/10 07:56:22;;;;;;;2.90;1.60;;;;;;;19.31;51.67;99870.19;5180089;28;20050;-69
2022/07/10 07:59:13;;;;;;;4.18;1.75;;;;;;;18.95;53.54;99881.47;5180093;28;20080;-71
2022/07/10 08:02:03;;;;;;;2.67;1.63;;;;;;;19.51;49.79;99875.91;5185374;28;20088;-71
2022/07/10 08:04:54;;;;;;;4.35;1.38;;;;;;;19.84;50.08;99877.34;5180688;28;20087;-71
2022/07/10 08:07:50;;;;;;;4.05;1.75;;;;;;;20.88;49.21;99863.91;5183571;28;20140;-71
2022/07/10 08:10:40;;;;;;;4.90;1.42;;;;;;;21.76;46.81;99867.31;5184831;28;20140;-70
2022/07/10 08:13:34;;;;;;;4.18;1.67;;;;;;;20.19;46.90;99861.50;5192656;28;20087;-70
2022/07/10 08:16:24;;;;;;;2.95;1.20;;;;;;;20.05;47.71;99865.03;5189947;28;20062;-70
2022/07/10 08:19:15;;;;;;;5.05;1.48;;;;;;;20.65;48.80;99854.09;5183307;28;20524;-71
2022/07/10 08:22:05;;;;;;;3.92;1.25;;;;;;;20.82;46.34;99852.00;5181648;28;20677;-71
2022/07/10 08:24:59;;;;;;;5.45;1.15;;;;;;;20.18;45.88;99860.66;5172248;28;20115;-71
2022/07/10 08:27:50;;;;;;;4.43;1.80;;;;;;;20.51;45.64;99860.34;5178414;28;20132;-71
2022/07/10 08:30:41;;;;;;;6.47;2.03;;;;;;;21.31;45.67;99847.78;5185496;28;20124;-71
2022/07/10 08:33:32;;;;;;;4.15;1.20;;;;;;;21.29;45.79;99847.97;5178778;28;20061;-70
2022/07/10 08:36:22;;;;;;;3.38;1.20;;;;;;;21.23;44.21;99850.59;5179665;28;20438;-70
2022/07/10 08:39:31;;;;;;;3.55;1.00;;;;;;;21.07;43.83;99847.13;5199359;28;20069;-70
2022/07/10 08:42:23;;;;;;;5.50;1.27;;;;;;;19.52;46.57;99848.00;5176635;28;20053;-70
2022/07/10 08:45:14;;;;;;;6.15;1.52;;;;;;;19.56;47.16;99860.88;5179998;28;20609;-70
2022/07/10 08:48:07;;;;;;;6.28;1.42;;;;;;;20.03;47.22;99851.72;5178876;28;20049;-69
2022/07/10 08:51:06;;;;;;;4.40;1.35;;;;;;;19.46;44.83;99836.09;5182055;28;20108;-70
2022/07/10 08:53:57;;;;;;;1.83;1.00;;;;;;;20.13;45.38;99848.78;5179679;28;20050;-71
2022/07/10 08:56:48;;;;;;;4.88;1.30;;;;;;;20.17;46.72;99848.22;5178811;28;20053;-71
2022/07/10 08:59:38;;;;;;;5.30;0.80;;;;;;;19.53;46.07;99845.09;5179343;28;20533;-71
2022/07/10 09:02:28;;;;;;;3.72;1.02;;;;;;;20.33;46.39;99849.91;5178165;28;20184;-72
2022/07/10 09:05:19;;;;;;;3.58;1.15;;;;;;;19.82;46.10;99841.69;5181360;28;20128;-71
2022/07/10 09:08:31;;;;;;;4.15;1.20;;;;;;;19.88;45.18;99849.03;5171265;28;20061;-70
2022/07/10 09:11:23;;;;;;;4.35;1.35;;;;;;;20.48;45.24;99857.97;5193883;28;20058;-72
2022/07/10 09:14:16;;;;;;;5.20;1.27;;;;;;;20.67;44.04;99851.22;5168420;28;20046;-71
2022/07/10 09:17:23;;;;;;;3.53;1.15;;;;;;;20.60;45.67;99853.00;5176771;28;20050;-71
2022/07/10 09:20:27;;;;;;;2.75;0.90;;;;;;;20.89;44.56;99841.28;5182846;28;20049;-71
2022/07/10 09:23:19;;;;;;;3.42;0.90;;;;;;;21.34;42.63;99850.09;5184314;28;20496;-71
2022/07/10 09:26:09;;;;;;;4.97;1.33;;;;;;;21.77;43.32;99847.38;5195733;28;20519;-72
2022/07/10 09:29:10;;;;;;;2.50;1.20;;;;;;;20.55;44.06;99848.16;5178791;28;20073;-72
2022/07/10 09:32:02;;;;;;;2.95;0.88;;;;;;;20.99;42.53;99844.56;5179393;28;20050;-72
2022/07/10 09:36:04;;;;;;;3.20;0.98;;;;;;;21.57;44.02;99847.22;5175858;28;20109;-72
2022/07/10 09:38:03;;;;;;;2.38;0.98;;;;;;;21.26;42.40;99850.22;5174434;28;20072;-73
2022/07/10 09:40:53;;;;;;;2.63;1.00;;;;;;;21.18;42.68;99850.34;5177193;28;20160;-72
2022/07/10 09:43:48;;;;;;;4.30;1.20;;;;;;;22.90;41.23;99848.88;5176397;28;20407;-73
2022/07/10 09:46:42;;;;;;;3.13;0.82;;;;;;;24.05;39.65;99846.97;5175996;28;20352;-72
2022/07/10 09:49:33;;;;;;;2.88;1.00;;;;;;;22.34;39.67;99845.50;5175370;28;20524;-73
2022/07/10 09:52:24;;;;;;;4.78;1.02;;;;;;;21.84;40.21;99856.34;5174706;28;20057;-73
2022/07/10 09:55:15;;;;;;;3.80;1.08;;;;;;;22.01;41.07;99859.59;5176522;28;20097;-72
2022/07/10 09:58:09;;;;;;;3.22;1.00;;;;;;;24.11;41.73;99853.41;5176159;28;20125;-70
2022/07/10 10:01:00;;;;;;;2.17;0.80;;;;;;;24.42;36.38;99841.06;5163640;28;20081;-72
2022/07/10 10:03:50;;;;;;;3.65;0.73;;;;;;;23.19;38.67;99852.31;5172908;28;20057;-71
2022/07/10 10:06:41;;;;;;;2.70;0.80;;;;;;;21.35;41.10;99838.28;5173642;28;20564;-71
2022/07/10 10:09:36;;;;;;;2.58;0.98;;;;;;;20.65;41.32;99840.59;5179593;28;20061;-71
2022/07/10 10:12:45;;;;;;;2.95;0.77;;;;;;;21.14;41.68;99843.66;5194737;28;20052;-71
2022/07/10 10:15:36;;;;;;;3.55;1.00;;;;;;;21.18;42.73;99847.63;5168061;28;20092;-71
2022/07/10 10:18:26;;;;;;;2.75;0.88;;;;;;;23.25;40.06;99839.84;5174032;28;20081;-71
2022/07/10 10:21:17;;;;;;;1.42;0.80;;;;;;;22.77;40.87;99827.19;5174865;28;20049;-73
2022/07/10 10:24:07;;;;;;;4.60;1.00;;;;;;;22.10;39.98;99814.38;5176230;28;20144;-71
2022/07/10 10:26:59;;;;;;;3.05;1.10;;;;;;;23.48;41.78;99834.00;5176104;28;20137;-72
2022/07/10 10:29:51;;;;;;;3.03;0.90;;;;;;;24.23;38.69;99821.91;5177845;28;20067;-73
2022/07/10 10:32:41;;;;;;;3.55;0.80;;;;;;;25.57;38.58;99827.53;5181076;28;20056;-72
2022/07/10 10:35:46;;;;;;;2.15;0.90;;;;;;;25.18;35.50;99807.75;5181034;28;20053;-72
2022/07/10 10:38:53;;;;;;;3.15;0.82;;;;;;;24.01;35.94;99815.91;5181659;28;20054;-70
2022/07/10 10:41:50;;;;;;;2.30;1.00;;;;;;;23.19;37.80;99820.69;5176050;28;20041;-71
2022/07/10 10:44:40;;;;;;;3.05;0.77;;;;;;;22.49;40.00;99824.59;5173873;28;20590;-71
2022/07/10 10:48:01;;;;;;;2.83;0.88;;;;;;;23.07;40.59;99821.47;5181356;28;20073;-71
2022/07/10 10:51:11;;;;;;;4.65;0.98;;;;;;;22.73;39.93;99818.66;5179644;28;20060;-72
2022/07/10 10:54:05;;;;;;;3.00;0.90;;;;;;;22.35;39.98;99812.91;5179372;28;20050;-72
2022/07/10 10:57:12;;;;;;;3.45;1.00;;;;;;;21.53;42.92;99832.44;5179009;28;20053;-72
2022/07/10 11:00:07;;;;;;;2.33;0.80;;;;;;;21.92;42.61;99818.44;5179381;28;20052;-72
2022/07/10 11:03:21;;;;;;;5.15;1.13;;;;;;;21.96;43.19;99841.28;5179004;28;20139;-73
2022/07/10 11:06:13;;;;;;;3.35;0.95;;;;;;;23.08;41.12;99828.56;5179360;28;20046;-72
2022/07/10 11:09:30;;;;;;;2.90;1.20;;;;;;;23.25;41.25;99829.84;5179601;28;20057;-71
2022/07/10 11:12:20;;;;;;;2.97;1.02;;;;;;;24.06;38.91;99829.66;5181207;28;20164;-70
2022/07/10 11:15:15;;;;;;;7.15;1.13;;;;;;;24.07;38.13;99823.22;5176076;28;20516;-71
2022/07/10 11:18:13;;;;;;;7.05;1.27;;;;;;;23.78;39.29;99818.25;5171837;28;20053;-71
2022/07/10 11:21:09;;;;;;;2.97;1.00;;;;;;;22.78;39.11;99823.47;5179715;28;20191;-71
2022/07/10 11:24:06;;;;;;;2.17;0.80;;;;;;;22.12;40.51;99829.34;5169690;28;20081;-71
2022/07/10 11:27:09;;;;;;;4.10;0.93;;;;;;;22.20;40.56;99817.59;5169708;28;20072;-70
2022/07/10 11:30:00;;;;;;;3.50;1.10;;;;;;;21.96;40.32;99825.09;5171444;28;20069;-71
2022/07/10 11:32:51;;;;;;;2.50;0.93;;;;;;;21.64;41.73;99815.72;5188582;28;20045;-71
2022/07/10 11:35:46;;;;;;;1.52;0.90;;;;;;;22.27;42.17;99815.75;5174086;28;20433;-71
2022/07/10 11:38:38;;;;;;;5.85;0.88;;;;;;;22.59;41.14;99819.66;5171828;28;20051;-74
2022/07/10 11:41:29;;;;;;;2.17;0.90;;;;;;;22.65;38.49;99807.19;5176255;28;20065;-72
2022/07/10 11:44:20;;;;;;;3.08;1.00;;;;;;;23.31;40.17;99810.09;5175190;28;20046;-72
2022/07/10 11:47:11;;;;;;;3.35;1.20;;;;;;;23.27;38.90;99819.63;5174737;28;20045;-72
2022/07/10 11:50:01;;;;;;;3.22;0.82;;;;;;;19.83;43.78;99819.13;5159958;28;20061;-72
2022/07/10 11:52:52;;;;;;;4.18;1.20;;;;;;;21.35;41.34;99816.69;5178023;28;20057;-72
2022/07/10 11:55:42;;;;;;;3.25;1.00;;;;;;;21.98;40.88;99817.63;5174493;28;20046;-72
2022/07/10 11:58:32;;;;;;;4.45;1.00;;;;;;;20.31;42.45;99824.19;5174948;28;20484;-72
2022/07/10 12:01:23;;;;;;;2.40;1.27;;;;;;;22.11;41.12;99816.88;5168386;28;20143;-73
2022/07/10 12:04:17;;;;;;;1.33;0.70;;;;;;;22.90;39.92;99805.59;5179326;28;20112;-73
2022/07/10 12:07:08;;;;;;;1.77;0.90;;;;;;;22.92;40.85;99806.25;5177439;28;20057;-73
2022/07/10 12:09:58;;;;;;;4.43;0.82;;;;;;;21.54;40.46;99809.81;5177491;28;20184;-73
2022/07/10 12:12:49;;;;;;;2.85;0.80;;;;;;;22.23;38.57;99801.81;5182912;28;20057;-73
2022/07/10 12:15:42;;;;;;;2.15;0.80;;;;;;;21.89;42.22;99802.63;5178209;28;20065;-73
2022/07/10 12:18:34;;;;;;;3.05;0.85;;;;;;;22.99;39.91;99819.81;5181109;28;20111;-72
2022/07/10 12:21:24;;;;;;;1.80;0.60;;;;;;;22.27;39.33;99818.44;5181101;28;20112;-73
2022/07/10 12:24:21;;;;;;;3.08;0.90;;;;;;;21.50;39.26;99803.97;5182470;28;20057;-73
2022/07/10 12:27:13;;;;;;;2.30;0.65;;;;;;;21.53;40.25;99808.16;5159630;28;20057;-72
2022/07/10 12:30:03;;;;;;;4.68;1.05;;;;;;;22.16;40.03;99808.22;5168199;28;20046;-73
2022/07/10 12:32:54;;;;;;;1.35;0.70;;;;;;;22.40;37.42;99815.00;5177799;28;20077;-73
2022/07/10 12:35:58;;;;;;;2.75;0.65;;;;;;;22.85;38.16;99805.41;5179343;28;20053;-73
2022/07/10 12:38:57;;;;;;;4.07;0.65;;;;;;;22.59;37.23;99808.00;5180017;28;20278;-73
2022/07/10 12:42:02;;;;;;;2.10;0.82;;;;;;;22.63;37.39;99811.97;5182171;28;20069;-73
2022/07/10 12:44:52;;;;;;;2.92;0.85;;;;;;;22.42;38.61;99815.63;5178049;28;20049;-73
2022/07/10 12:47:47;;;;;;;2.03;0.50;;;;;;;22.46;37.80;99809.63;5179723;28;20591;-72
2022/07/10 12:50:37;;;;;;;3.42;0.88;;;;;;;21.15;38.08;99807.56;5180301;28;20050;-73
2022/07/10 12:53:27;;;;;;;2.13;0.90;;;;;;;21.84;39.72;99802.38;5182670;28;20065;-73
2022/07/10 12:56:37;;;;;;;1.88;0.63;;;;;;;22.13;37.65;99804.00;5173710;28;20520;-73
2022/07/10 12:59:29;;;;;;;1.08;0.63;;;;;;;21.22;39.13;99786.88;5178363;28;20062;-73
2022/07/10 13:02:21;;;;;;;3.67;0.80;;;;;;;21.59;39.09;99802.00;5176579;28;20122;-73
2022/07/10 13:05:25;;;;;;;2.40;0.60;;;;;;;21.68;39.23;99813.47;5181340;28;20049;-73
2022/07/10 13:08:22;;;;;;;2.67;0.70;;;;;;;21.47;38.99;99809.75;5182247;28;20416;-73
2022/07/10 13:11:13;;;;;;;3.20;0.75;;;;;;;22.18;37.42;99800.72;5178551;28;20093;-74
2022/07/10 13:14:04;;;;;;;1.95;0.70;;;;;;;22.59;38.63;99805.31;5178055;28;20519;-73
2022/07/10 13:16:54;;;;;;;3.72;0.47;;;;;;;21.92;37.37;99806.75;5179571;28;20041;-72
2022/07/10 13:19:44;;;;;;;4.07;0.75;;;;;;;21.24;38.68;99792.94;5178223;28;20471;-73
2022/07/10 13:22:35;;;;;;;0.90;0.60;;;;;;;20.85;38.98;99800.41;5176024;28;20061;-73
2022/07/10 13:25:25;;;;;;;1.65;0.60;;;;;;;21.86;37.76;99802.19;5171499;28;20185;-72
2022/07/10 13:28:16;;;;;;;3.95;0.80;;;;;;;21.61;38.50;99808.00;5176440;28;20056;-72
2022/07/10 13:31:08;;;;;;;6.38;0.80;;;;;;;21.83;37.67;99811.50;5180758;28;20064;-73
2022/07/10 13:33:58;;;;;;;2.67;0.60;;;;;;;22.02;36.92;99802.72;5180609;28;20073;-72
2022/07/10 13:36:50;;;;;;;1.92;0.55;;;;;;;22.51;36.73;99792.78;5179951;28;20042;-72